Time;durP1;ratioP1;P1;durP2;ratioP2;P2;SDS_P1;SDS_P2;PMS_P1;PMS_P2;Temp;Humidity;BMP_temperature;BMP_pressure;BME280_temperature;BME280_humidity;BME280_pressure;Samples;Min_cycle;Max_cycle;Signal;HPM_P1;HPM_P2
2023/07/29 00:01:40;;;;;;;;;7.50;6.00;;;;;21.93;75.80;100661.94;5000417;28;45417;-44
2023/07/29 00:04:06;;;;;;;;;6.00;6.00;;;;;21.91;75.76;100655.81;5000152;28;45459;-44
2023/07/29 00:06:31;;;;;;;;;7.00;5.75;;;;;21.88;75.73;100663.41;4998600;28;48119;-45
2023/07/29 00:08:57;;;;;;;;;8.25;6.75;;;;;21.83;76.07;100654.91;4999594;28;56960;-44
2023/07/29 00:11:22;;;;;;;;;7.25;5.75;;;;;21.83;76.61;100653.03;4999485;28;60691;-47
2023/07/29 00:13:49;;;;;;;;;6.33;6.00;;;;;21.84;76.05;100652.03;4999197;28;60306;-50
2023/07/29 00:16:16;;;;;;;;;5.00;5.00;;;;;21.80;75.57;100654.19;4998638;28;48221;-49
2023/07/29 00:18:42;;;;;;;;;6.00;6.00;;;;;21.76;75.87;100644.69;4996605;28;45440;-48
2023/07/29 00:21:07;;;;;;;;;7.67;7.67;;;;;21.75;76.15;100632.16;5000197;28;45483;-45
2023/07/29 00:23:33;;;;;;;;;4.67;4.67;;;;;21.73;76.99;100636.88;4999984;28;45383;-46
2023/07/29 00:25:58;;;;;;;;;6.00;6.00;;;;;21.72;77.33;100635.16;4999250;28;67805;-49
2023/07/29 00:28:23;;;;;;;;;8.00;8.00;;;;;21.69;76.92;100629.22;4999587;28;45329;-50
2023/07/29 00:30:49;;;;;;;;;8.33;6.67;;;;;21.66;77.42;100630.38;4999010;28;61557;-48
2023/07/29 00:33:14;;;;;;;;;6.67;6.67;;;;;21.62;77.00;100632.53;4999781;28;45380;-45
2023/07/29 00:35:39;;;;;;;;;7.00;7.00;;;;;21.59;76.63;100630.13;4999482;28;46348;-48
2023/07/29 00:38:05;;;;;;;;;5.67;5.67;;;;;21.56;77.66;100630.44;4999370;28;54799;-50
2023/07/29 00:40:30;;;;;;;;;3.25;2.50;;;;;21.58;76.51;100641.13;4998886;28;67563;-47
2023/07/29 00:42:56;;;;;;;;;4.00;4.00;;;;;21.57;76.51;100640.25;5000521;28;45523;-45
2023/07/29 00:45:23;;;;;;;;;2.50;2.00;;;;;21.62;76.24;100642.50;5002046;28;60577;-48
2023/07/29 00:47:48;;;;;;;;;3.25;2.00;;;;;21.64;75.95;100640.47;4999187;28;45273;-46
2023/07/29 00:50:16;;;;;;;;;2.50;2.25;;;;;21.64;75.35;100637.78;5003005;28;45349;-46
2023/07/29 00:52:41;;;;;;;;;3.00;2.25;;;;;21.61;75.02;100646.22;5002990;28;45432;-46
2023/07/29 00:55:07;;;;;;;;;3.00;3.00;;;;;21.55;75.04;100647.69;5002336;28;63305;-45
2023/07/29 00:57:33;;;;;;;;;2.25;2.25;;;;;21.55;75.08;100644.97;5001386;28;45483;-46
2023/07/29 00:59:59;;;;;;;;;3.00;3.00;;;;;21.54;74.99;100645.09;5002951;28;45361;-47
2023/07/29 01:02:26;;;;;;;;;1.25;1.25;;;;;21.55;74.92;100646.81;5002964;28;45349;-47
2023/07/29 01:04:55;;;;;;;;;1.50;1.50;;;;;21.51;74.41;100656.22;5002594;28;45451;-49
2023/07/29 01:07:33;;;;;;;;;3.00;3.00;;;;;21.46;74.02;100659.38;4999059;28;45316;-47
2023/07/29 01:10:03;;;;;;;;;1.00;1.00;;;;;21.41;74.52;100662.53;5002914;28;45396;-45
2023/07/29 01:12:28;;;;;;;;;2.00;2.00;;;;;21.38;74.62;100653.84;5002721;28;45439;-45
2023/07/29 01:15:11;;;;;;;;;2.00;2.00;;;;;21.36;74.64;100632.38;5002273;28;45449;-45
2023/07/29 01:17:48;;;;;;;;;2.00;2.00;;;;;21.36;74.43;100613.44;5001310;28;45364;-47
2023/07/29 01:20:15;;;;;;;;;1.50;1.50;;;;;21.33;73.92;100627.28;5002488;28;45226;-46
2023/07/29 01:22:41;;;;;;;;;2.50;2.50;;;;;21.30;73.85;100625.72;5002583;28;45328;-48
2023/07/29 01:25:06;;;;;;;;;0.00;0.00;;;;;21.27;73.59;100630.56;5002452;28;46336;-47
2023/07/29 01:27:32;;;;;;;;;1.00;1.00;;;;;21.25;73.59;100641.56;5002777;28;45419;-47
2023/07/29 01:29:58;;;;;;;;;2.00;1.00;;;;;21.19;72.98;100634.03;5002318;28;45404;-46
2023/07/29 01:32:42;;;;;;;;;1.25;1.25;;;;;21.15;73.86;100638.03;5001386;28;45509;-47
2023/07/29 01:35:42;;;;;;;;;1.00;1.00;;;;;21.11;73.06;100640.19;5002059;28;46445;-47
2023/07/29 01:38:18;;;;;;;;;3.00;1.00;;;;;21.04;73.20;100627.41;5002321;28;45369;-46
2023/07/29 01:40:44;;;;;;;;;0.50;0.50;;;;;21.02;73.02;100618.63;5001222;28;45353;-46
2023/07/29 01:43:10;;;;;;;;;1.00;1.00;;;;;21.03;72.93;100623.00;5000868;28;45386;-46
2023/07/29 01:45:37;;;;;;;;;2.00;2.00;;;;;21.02;72.89;100630.28;5001856;28;45324;-46
2023/07/29 01:48:04;;;;;;;;;0.50;0.50;;;;;21.01;73.23;100636.66;5002015;28;45353;-48
2023/07/29 01:50:31;;;;;;;;;0.00;0.00;;;;;21.01;73.33;100635.84;5002494;28;45325;-49
2023/07/29 01:52:57;;;;;;;;;0.00;0.00;;;;;20.95;73.13;100630.03;5000357;28;45566;-46
2023/07/29 01:55:22;;;;;;;;;0.00;0.00;;;;;20.95;73.40;100626.44;5001978;28;46204;-49
2023/07/29 01:57:47;;;;;;;;;1.00;1.00;;;;;20.89;73.03;100618.94;5001896;28;45412;-50
2023/07/29 02:00:13;;;;;;;;;1.00;1.00;;;;;20.87;73.35;100620.94;5001917;28;45427;-46
2023/07/29 02:02:38;;;;;;;;;0.00;0.00;;;;;20.80;72.74;100635.03;5002069;28;45668;-48
2023/07/29 02:05:04;;;;;;;;;1.00;1.00;;;;;20.76;73.14;100644.44;5001563;28;54028;-45
2023/07/29 02:07:29;;;;;;;;;1.75;1.75;;;;;20.76;73.09;100652.56;5001762;28;45360;-48
2023/07/29 02:09:54;;;;;;;;;2.50;0.25;;;;;20.74;72.79;100661.81;5002133;28;45706;-47
2023/07/29 02:12:20;;;;;;;;;0.50;0.50;;;;;20.71;73.04;100644.03;5001336;28;60708;-46
2023/07/29 02:14:45;;;;;;;;;0.25;0.25;;;;;20.71;73.28;100640.50;5000798;28;64593;-48
2023/07/29 02:17:10;;;;;;;;;1.00;1.00;;;;;20.70;73.39;100634.22;5001646;28;45422;-48
2023/07/29 02:19:36;;;;;;;;;0.00;0.00;;;;;20.73;73.38;100630.38;5000799;28;63569;-46
2023/07/29 02:22:01;;;;;;;;;2.00;0.00;;;;;20.70;73.62;100636.06;5001713;28;45293;-47
2023/07/29 02:24:26;;;;;;;;;1.00;1.00;;;;;20.63;73.42;100623.09;5000904;28;64330;-46
2023/07/29 02:26:52;;;;;;;;;0.75;0.75;;;;;20.58;73.51;100624.56;4999051;28;45406;-48
2023/07/29 02:29:17;;;;;;;;;2.00;1.00;;;;;20.55;73.02;100627.56;5001509;28;45277;-45
2023/07/29 02:31:44;;;;;;;;;1.00;1.00;;;;;20.51;73.11;100632.41;5001613;28;45387;-45
2023/07/29 02:34:09;;;;;;;;;1.00;1.00;;;;;20.49;73.78;100629.84;4999883;28;46969;-46
2023/07/29 02:36:34;;;;;;;;;1.00;1.00;;;;;20.51;73.49;100640.50;5000073;28;45396;-46
2023/07/29 02:39:00;;;;;;;;;1.00;1.00;;;;;20.52;73.32;100644.91;5000192;28;45516;-48
2023/07/29 02:41:25;;;;;;;;;1.00;1.00;;;;;20.51;73.35;100637.81;4998519;28;45495;-45
2023/07/29 02:43:51;;;;;;;;;1.00;1.00;;;;;20.48;73.25;100646.19;5000887;28;45333;-46
2023/07/29 02:46:17;;;;;;;;;1.50;1.00;;;;;20.42;73.74;100655.72;5001118;28;45451;-49
2023/07/29 02:48:43;;;;;;;;;1.00;1.00;;;;;20.38;74.15;100632.72;5001304;28;45473;-48
2023/07/29 02:51:09;;;;;;;;;1.00;1.00;;;;;20.34;73.85;100634.00;5001235;28;45252;-48
2023/07/29 02:53:36;;;;;;;;;0.00;0.00;;;;;20.31;74.37;100647.78;4998999;28;65462;-46
2023/07/29 02:56:02;;;;;;;;;1.00;1.00;;;;;20.29;73.75;100653.31;5001303;28;45349;-47
2023/07/29 02:58:27;;;;;;;;;2.00;0.50;;;;;20.27;74.48;100654.47;5001078;28;45276;-48
2023/07/29 03:00:53;;;;;;;;;0.00;0.00;;;;;20.22;74.03;100644.09;5000795;28;59779;-50
2023/07/29 03:03:19;;;;;;;;;1.00;1.00;;;;;20.22;74.20;100648.63;4999678;28;46785;-50
2023/07/29 03:05:44;;;;;;;;;0.00;0.00;;;;;20.21;74.29;100658.59;5000123;28;45274;-53
2023/07/29 03:08:10;;;;;;;;;0.25;0.25;;;;;20.23;74.53;100664.69;5000691;28;52234;-50
2023/07/29 03:10:36;;;;;;;;;0.00;0.00;;;;;20.25;74.64;100670.81;5000928;28;45555;-47
2023/07/29 03:13:01;;;;;;;;;1.00;0.50;;;;;20.26;74.79;100675.22;5000811;28;47003;-47
2023/07/29 03:15:26;;;;;;;;;1.25;1.00;;;;;20.29;74.53;100672.22;4999853;28;60094;-46
2023/07/29 03:17:52;;;;;;;;;2.00;0.00;;;;;20.31;74.73;100686.44;5000233;28;57956;-46
2023/07/29 03:20:17;;;;;;;;;1.00;1.00;;;;;20.37;74.88;100678.78;5000374;28;50590;-49
2023/07/29 03:22:43;;;;;;;;;0.25;0.25;;;;;20.38;74.30;100675.09;5000148;28;59700;-46
2023/07/29 03:25:09;;;;;;;;;2.00;0.50;;;;;20.30;74.37;100673.94;5000671;28;45342;-47
2023/07/29 03:27:36;;;;;;;;;0.75;0.75;;;;;20.25;74.99;100678.06;4996166;28;45475;-47
2023/07/29 03:30:02;;;;;;;;;1.75;1.00;;;;;20.19;74.77;100673.22;4993605;28;45384;-46
2023/07/29 03:32:27;;;;;;;;;0.00;0.00;;;;;20.16;74.78;100679.78;5000367;28;46070;-48
2023/07/29 03:34:53;;;;;;;;;0.00;0.00;;;;;20.12;75.05;100681.06;4999858;28;60284;-47
2023/07/29 03:37:18;;;;;;;;;0.75;0.75;;;;;20.09;75.16;100682.19;4999581;28;68989;-44
2023/07/29 03:39:44;;;;;;;;;0.00;0.00;;;;;20.06;75.11;100692.41;5000582;28;45484;-46
2023/07/29 03:42:09;;;;;;;;;0.75;0.75;;;;;20.02;75.67;100696.38;4999437;28;68962;-47
2023/07/29 03:44:35;;;;;;;;;1.00;1.00;;;;;19.98;75.29;100693.13;4999318;28;64283;-45
2023/07/29 03:47:00;;;;;;;;;0.75;0.75;;;;;19.97;75.91;100694.97;5000478;28;45425;-49
2023/07/29 03:49:26;;;;;;;;;1.00;1.00;;;;;19.96;75.65;100690.56;4999422;28;65269;-47
2023/07/29 03:51:51;;;;;;;;;0.00;0.00;;;;;19.93;76.29;100692.69;4998826;28;53266;-46
2023/07/29 03:54:16;;;;;;;;;1.00;1.00;;;;;19.88;76.28;100695.81;4998057;28;72274;-46
2023/07/29 03:56:42;;;;;;;;;1.50;1.25;;;;;19.86;76.15;100695.09;4999326;28;65487;-46
2023/07/29 03:59:07;;;;;;;;;1.00;1.00;;;;;19.84;76.62;100694.38;4997740;28;69896;-46
2023/07/29 04:01:32;;;;;;;;;1.00;1.00;;;;;19.83;76.51;100692.69;4999203;28;73159;-45
2023/07/29 04:03:58;;;;;;;;;1.75;0.50;;;;;19.83;76.71;100684.59;4999752;28;50656;-46
2023/07/29 04:06:24;;;;;;;;;0.75;0.75;;;;;19.81;76.27;100689.22;5000407;28;46361;-50
2023/07/29 04:08:49;;;;;;;;;1.00;1.00;;;;;19.81;76.83;100692.78;4999730;28;55260;-51
2023/07/29 04:11:14;;;;;;;;;0.00;0.00;;;;;19.79;76.73;100692.06;4999368;28;67764;-48
2023/07/29 04:13:40;;;;;;;;;0.00;0.00;;;;;19.73;76.37;100695.31;4979344;28;48159;-47
2023/07/29 04:16:07;;;;;;;;;1.00;1.00;;;;;19.67;76.75;100690.47;5000354;28;45384;-49
2023/07/29 04:18:32;;;;;;;;;1.75;1.75;;;;;19.61;76.66;100691.03;5003009;28;45525;-49
2023/07/29 04:20:58;;;;;;;;;1.00;1.00;;;;;19.57;77.29;100690.47;5002083;28;46219;-46
2023/07/29 04:23:23;;;;;;;;;2.25;1.00;;;;;19.57;77.07;100695.84;5003359;28;45375;-45
2023/07/29 04:25:49;;;;;;;;;1.00;1.00;;;;;19.56;77.24;100696.84;5002594;28;69162;-46
2023/07/29 04:28:15;;;;;;;;;3.25;2.00;;;;;19.56;77.46;100698.69;5003274;28;45522;-44
2023/07/29 04:30:40;;;;;;;;;1.00;1.00;;;;;19.54;77.90;100709.59;5003322;28;46377;-45
2023/07/29 04:33:05;;;;;;;;;2.00;2.00;;;;;19.55;77.30;100719.41;5003396;28;45362;-45
2023/07/29 04:35:31;;;;;;;;;2.00;2.00;;;;;19.53;77.33;100717.84;5001397;28;66306;-45
2023/07/29 04:37:56;;;;;;;;;2.00;2.00;;;;;19.55;78.11;100705.06;5002929;28;49475;-44
2023/07/29 04:40:22;;;;;;;;;1.00;1.00;;;;;19.56;77.47;100713.03;5002589;28;56550;-44
2023/07/29 04:42:48;;;;;;;;;1.00;1.00;;;;;19.61;77.89;100712.63;5003150;28;45329;-46
2023/07/29 04:45:13;;;;;;;;;2.00;2.00;;;;;19.66;77.38;100707.66;5003090;28;45235;-44
2023/07/29 04:47:39;;;;;;;;;2.00;1.00;;;;;19.72;77.51;100715.19;5003321;28;45476;-45
2023/07/29 04:50:06;;;;;;;;;1.00;1.00;;;;;19.75;77.14;100716.75;5001593;28;46301;-44
2023/07/29 04:52:31;;;;;;;;;2.00;2.00;;;;;19.77;77.16;100710.22;5003064;28;45442;-45
2023/07/29 04:54:56;;;;;;;;;2.00;2.00;;;;;19.76;77.05;100711.22;4998362;28;45269;-45
2023/07/29 04:57:22;;;;;;;;;2.25;1.75;;;;;19.75;76.97;100701.44;4995821;28;45339;-46
2023/07/29 04:59:47;;;;;;;;;2.00;2.00;;;;;19.77;76.82;100704.84;5002083;28;61910;-48
2023/07/29 05:02:12;;;;;;;;;2.25;2.25;;;;;19.79;76.67;100702.00;5002058;28;71876;-45
2023/07/29 05:04:37;;;;;;;;;1.00;1.00;;;;;19.81;76.79;100705.41;5002328;28;52938;-47
2023/07/29 05:07:03;;;;;;;;;4.00;1.00;;;;;19.86;76.40;100713.13;5001574;28;45496;-47
2023/07/29 05:09:28;;;;;;;;;3.33;2.00;;;;;19.88;76.04;100712.00;5002635;28;46252;-46
2023/07/29 05:11:54;;;;;;;;;3.00;1.00;;;;;19.91;75.96;100717.13;5001726;28;71585;-48
2023/07/29 05:14:19;;;;;;;;;1.00;1.00;;;;;19.95;76.38;100723.09;5002405;28;45731;-46
2023/07/29 05:16:44;;;;;;;;;1.50;1.50;;;;;20.01;75.56;100722.50;5001412;28;45579;-47
2023/07/29 05:19:10;;;;;;;;;1.25;1.25;;;;;20.05;75.76;100715.00;5002387;28;46860;-45
2023/07/29 05:21:37;;;;;;;;;1.00;1.00;;;;;20.09;75.67;100717.28;5001826;28;69985;-46
2023/07/29 05:24:02;;;;;;;;;1.25;1.25;;;;;20.11;75.49;100715.28;5002513;28;45376;-45
2023/07/29 05:26:27;;;;;;;;;1.00;1.00;;;;;20.14;75.08;100719.53;4998296;28;45353;-45
2023/07/29 05:28:53;;;;;;;;;1.00;1.00;;;;;20.15;74.95;100721.25;4999367;28;46077;-47
2023/07/29 05:31:18;;;;;;;;;1.00;1.00;;;;;20.15;74.28;100718.56;5002508;28;48657;-47
2023/07/29 05:33:43;;;;;;;;;1.75;1.75;;;;;20.17;74.86;100719.28;5001576;28;65809;-45
2023/07/29 05:36:09;;;;;;;;;0.25;0.25;;;;;20.38;73.68;100713.72;5001752;28;63507;-46
2023/07/29 05:38:34;;;;;;;;;1.00;1.00;;;;;20.37;73.90;100716.59;4996914;28;74252;-45
2023/07/29 05:41:00;;;;;;;;;1.75;1.00;;;;;20.35;73.54;100719.44;4993809;28;72289;-45
2023/07/29 05:43:26;;;;;;;;;1.00;1.00;;;;;20.31;73.48;100718.84;5001948;28;45503;-46
2023/07/29 05:45:51;;;;;;;;;1.75;1.00;;;;;20.36;73.23;100721.13;4997705;28;45362;-45
2023/07/29 05:48:16;;;;;;;;;3.00;2.00;;;;;20.30;73.53;100727.94;4998828;28;74510;-45
2023/07/29 05:50:42;;;;;;;;;1.00;1.00;;;;;20.30;73.99;100719.00;5000768;28;45352;-49
2023/07/29 05:53:07;;;;;;;;;1.00;1.00;;;;;20.31;73.44;100729.66;5001451;28;62371;-47
2023/07/29 05:55:33;;;;;;;;;1.00;1.00;;;;;20.37;73.88;100722.81;5001152;28;66889;-47
2023/07/29 05:57:58;;;;;;;;;1.00;1.00;;;;;20.45;73.38;100724.81;5000924;28;74820;-48
2023/07/29 06:00:23;;;;;;;;;1.00;1.00;;;;;20.46;72.81;100721.97;5000935;28;45317;-44
2023/07/29 06:02:48;;;;;;;;;1.00;1.00;;;;;20.49;73.07;100728.94;5001598;28;62153;-49
2023/07/29 06:05:14;;;;;;;;;0.00;0.00;;;;;20.50;72.72;100733.34;5000745;28;56062;-49
2023/07/29 06:07:43;;;;;;;;;2.00;1.00;;;;;20.50;72.38;100723.38;5001905;28;45497;-48
2023/07/29 06:10:11;;;;;;;;;0.00;0.00;;;;;20.59;72.74;100724.38;5001941;28;45420;-44
2023/07/29 06:12:37;;;;;;;;;0.75;0.75;;;;;20.70;72.58;100722.53;5001883;28;45412;-45
2023/07/29 06:15:02;;;;;;;;;3.00;1.00;;;;;20.75;71.48;100722.97;5001664;28;45376;-47
2023/07/29 06:17:27;;;;;;;;;0.00;0.00;;;;;20.83;71.62;100731.19;4997053;28;45915;-45
2023/07/29 06:19:53;;;;;;;;;0.00;0.00;;;;;20.98;71.80;100737.00;4992453;28;46404;-49
2023/07/29 06:22:18;;;;;;;;;2.00;2.00;;;;;21.12;69.66;100735.69;5000768;28;66830;-44
2023/07/29 06:24:43;;;;;;;;;0.00;0.00;;;;;21.15;70.70;100740.81;5001705;28;45439;-45
2023/07/29 06:27:09;;;;;;;;;2.00;1.00;;;;;21.29;70.35;100745.72;5000392;28;72416;-46
2023/07/29 06:29:34;;;;;;;;;0.00;0.00;;;;;21.44;69.21;100750.66;5000927;28;53280;-48
2023/07/29 06:32:00;;;;;;;;;1.00;1.00;;;;;21.56;68.87;100746.81;5001766;28;45384;-45
2023/07/29 06:34:25;;;;;;;;;0.00;0.00;;;;;21.67;68.49;100745.75;5001783;28;45371;-45
2023/07/29 06:36:51;;;;;;;;;1.00;1.00;;;;;21.90;68.28;100739.91;4998983;28;67997;-45
2023/07/29 06:39:16;;;;;;;;;2.00;0.00;;;;;21.99;67.26;100749.81;4999784;28;69208;-48
2023/07/29 06:41:41;;;;;;;;;1.50;1.50;;;;;23.64;64.49;100756.53;5000275;28;66852;-46
2023/07/29 06:44:06;;;;;;;;;1.00;1.00;;;;;24.97;58.56;100754.91;5001393;28;45556;-47
2023/07/29 06:46:32;;;;;;;;;2.50;1.00;;;;;25.62;59.54;100747.56;5000237;28;71373;-48
2023/07/29 06:48:57;;;;;;;;;1.00;1.00;;;;;27.42;59.23;100747.25;5000578;28;65384;-45
2023/07/29 06:51:23;;;;;;;;;0.50;0.50;;;;;28.62;54.53;100755.97;5000662;28;58526;-45
2023/07/29 06:53:48;;;;;;;;;1.50;0.00;;;;;28.55;50.59;100763.25;5001214;28;45392;-50
2023/07/29 06:56:13;;;;;;;;;0.50;0.50;;;;;27.49;51.67;100756.34;5000443;28;62296;-45
2023/07/29 06:58:38;;;;;;;;;0.25;0.25;;;;;27.71;52.25;100756.44;5000056;28;69867;-46
2023/07/29 07:01:04;;;;;;;;;1.50;0.00;;;;;29.93;48.72;100759.16;5000192;28;67819;-49
2023/07/29 07:03:29;;;;;;;;;0.00;0.00;;;;;31.51;45.61;100752.19;5001024;28;48314;-46
2023/07/29 07:05:54;;;;;;;;;0.00;0.00;;;;;33.44;44.76;100759.34;5000982;28;45377;-46
2023/07/29 07:08:20;;;;;;;;;0.00;0.00;;;;;32.82;43.66;100762.94;5000355;28;63250;-44
2023/07/29 07:10:47;;;;;;;;;0.00;0.00;;;;;32.55;41.04;100767.78;5000139;28;67087;-45
2023/07/29 07:13:12;;;;;;;;;0.50;0.00;;;;;31.05;41.67;100769.66;5000895;28;45293;-48
2023/07/29 07:15:37;;;;;;;;;0.00;0.00;;;;;29.49;44.00;100784.00;4999758;28;74465;-44
2023/07/29 07:18:03;;;;;;;;;0.00;0.00;;;;;28.21;45.21;100786.69;5000554;28;51897;-46
2023/07/29 07:20:28;;;;;;;;;0.00;0.00;;;;;27.20;46.58;100788.03;4999975;28;66247;-45
2023/07/29 07:22:55;;;;;;;;;0.25;0.25;;;;;26.17;48.24;100800.28;4983258;28;45443;-50
2023/07/29 07:25:20;;;;;;;;;1.00;1.00;;;;;25.66;50.06;100790.63;5000514;28;46479;-48
2023/07/29 07:27:45;;;;;;;;;0.00;0.00;;;;;25.26;51.42;100800.56;5000315;28;61709;-45
2023/07/29 07:30:11;;;;;;;;;0.00;0.00;;;;;24.86;52.57;100791.44;5000304;28;48047;-44
2023/07/29 07:32:37;;;;;;;;;0.50;0.50;;;;;24.50;53.82;100803.47;4999390;28;45374;-43
2023/07/29 07:35:04;;;;;;;;;0.00;0.00;;;;;24.25;53.44;100803.44;5000034;28;46822;-45
2023/07/29 07:37:29;;;;;;;;;1.00;1.00;;;;;24.07;54.27;100800.00;5000551;28;45400;-47
2023/07/29 07:39:54;;;;;;;;;0.75;0.75;;;;;23.88;54.88;100798.34;4998769;28;54967;-46
2023/07/29 07:42:20;;;;;;;;;0.50;0.50;;;;;24.02;55.38;100791.50;4991497;28;45504;-48
2023/07/29 07:44:45;;;;;;;;;0.00;0.00;;;;;24.05;55.68;100794.72;4994545;28;72359;-45
2023/07/29 07:47:10;;;;;;;;;0.00;0.00;;;;;24.15;55.08;100788.31;5000233;28;45408;-44
2023/07/29 07:49:36;;;;;;;;;2.50;0.00;;;;;25.32;56.30;100779.97;4998977;28;68860;-44
2023/07/29 07:52:01;;;;;;;;;2.00;1.00;;;;;27.14;52.63;100780.59;4999354;28;66685;-45
2023/07/29 07:54:26;;;;;;;;;1.00;1.00;;;;;27.46;49.11;100786.78;4999486;28;45535;-43
2023/07/29 07:56:52;;;;;;;;;0.00;0.00;;;;;26.95;48.67;100792.03;5000020;28;45403;-47
2023/07/29 07:59:17;;;;;;;;;1.00;1.00;;;;;26.65;49.78;100786.47;4998813;28;45570;-45
2023/07/29 08:01:42;;;;;;;;;1.00;1.00;;;;;28.11;50.04;100789.75;4999609;28;60826;-44
2023/07/29 08:04:08;;;;;;;;;1.00;1.00;;;;;28.56;46.55;100792.28;4999431;28;70038;-45
2023/07/29 08:06:33;;;;;;;;;1.00;1.00;;;;;29.05;46.22;100788.75;5001089;28;45633;-46
2023/07/29 08:08:59;;;;;;;;;0.00;0.00;;;;;30.67;44.26;100784.84;5000488;28;45424;-45
2023/07/29 08:11:24;;;;;;;;;0.25;0.25;;;;;30.27;43.64;100793.84;4999014;28;45416;-47
2023/07/29 08:13:50;;;;;;;;;0.50;0.50;;;;;29.73;44.71;100791.94;4999682;28;45273;-46
2023/07/29 08:16:15;;;;;;;;;0.00;0.00;;;;;29.22;44.86;100788.44;4999785;28;47832;-44
2023/07/29 08:18:40;;;;;;;;;0.00;0.00;;;;;28.47;44.96;100797.03;4998948;28;66187;-46
2023/07/29 08:21:06;;;;;;;;;0.00;0.00;;;;;27.55;46.21;100793.00;4999285;28;58264;-48
2023/07/29 08:23:33;;;;;;;;;2.00;0.50;;;;;26.91;46.78;100797.03;4999719;28;46271;-44
2023/07/29 08:26:01;;;;;;;;;0.00;0.00;;;;;26.39;48.66;100798.63;5000146;28;45158;-46
2023/07/29 08:28:31;;;;;;;;;0.00;0.00;;;;;25.88;48.63;100799.91;4999366;28;46923;-45
2023/07/29 08:30:56;;;;;;;;;1.00;1.00;;;;;25.48;49.96;100796.28;4999916;28;45482;-45
2023/07/29 08:33:22;;;;;;;;;0.00;0.00;;;;;25.24;50.58;100787.16;4999442;28;45899;-46
2023/07/29 08:35:47;;;;;;;;;0.50;0.50;;;;;25.09;51.58;100799.75;4997560;28;67897;-47
2023/07/29 08:38:12;;;;;;;;;1.00;0.00;;;;;25.04;51.45;100796.69;4998990;28;67849;-45
2023/07/29 08:40:42;;;;;;;;;1.00;1.00;;;;;25.47;51.69;100783.69;4998599;28;45603;-49
2023/07/29 08:43:08;;;;;;;;;0.00;0.00;;;;;27.24;49.72;100783.91;4979928;28;45468;-48
2023/07/29 08:45:38;;;;;;;;;0.25;0.25;;;;;30.68;47.88;100781.06;4998207;28;45428;-45
2023/07/29 08:48:07;;;;;;;;;1.00;1.00;;;;;33.32;40.55;100784.06;4999382;28;45206;-47
2023/07/29 08:50:33;;;;;;;;;1.00;1.00;;;;;34.04;36.30;100774.31;4998350;28;45447;-50
2023/07/29 08:53:00;;;;;;;;;0.00;0.00;;;;;34.55;37.32;100778.47;4998915;28;67722;-49
2023/07/29 08:55:26;;;;;;;;;0.00;0.00;;;;;34.69;36.00;100775.47;4998287;28;45424;-50
2023/07/29 08:57:52;;;;;;;;;0.00;0.00;;;;;33.99;36.25;100775.03;4998667;28;62009;-48
2023/07/29 09:00:17;;;;;;;;;0.00;0.00;;;;;33.51;36.13;100767.56;4978190;28;45868;-45
2023/07/29 09:02:42;;;;;;;;;0.00;0.00;;;;;34.52;35.80;100765.13;4995556;28;72182;-48
2023/07/29 09:05:08;;;;;;;;;0.00;0.00;;;;;35.48;33.92;100766.84;5002208;28;62915;-47
2023/07/29 09:07:34;;;;;;;;;0.00;0.00;;;;;37.02;31.47;100755.00;5002136;28;58686;-49
2023/07/29 09:09:59;;;;;;;;;0.00;0.00;;;;;38.05;30.51;100761.06;5003383;28;47385;-50
2023/07/29 09:12:24;;;;;;;;;0.00;0.00;;;;;38.31;29.25;100759.41;5002143;28;71254;-48
2023/07/29 09:14:54;;;;;;;;;0.00;0.00;;;;;39.85;30.31;100762.31;5002370;28;45310;-49
2023/07/29 09:17:20;;;;;;;;;0.00;0.00;;;;;41.30;28.50;100768.75;5002699;28;45380;-50
2023/07/29 09:19:50;;;;;;;;;0.00;0.00;;;;;41.47;27.55;100760.06;4998099;28;45716;-47
2023/07/29 09:22:20;;;;;;;;;0.00;0.00;;;;;40.89;28.36;100752.09;5001059;28;48234;-50
2023/07/29 09:24:46;;;;;;;;;0.00;0.00;;;;;40.80;25.71;100751.00;5001258;28;45507;-48
2023/07/29 09:27:24;;;;;;;;;0.00;0.00;;;;;41.05;27.03;100741.78;5002463;28;45720;-48
2023/07/29 09:29:49;;;;;;;;;0.25;0.25;;;;;40.82;26.94;100740.41;5002411;28;45395;-48
2023/07/29 09:32:20;;;;;;;;;1.00;0.00;;;;;40.17;28.36;100746.56;5001293;28;75638;-46
2023/07/29 09:34:45;;;;;;;;;0.20;0.20;;;;;38.62;27.46;100753.25;5002283;28;45518;-46
2023/07/29 09:37:16;;;;;;;;;0.50;0.00;;;;;36.72;29.37;100758.97;5001254;28;45495;-45
2023/07/29 09:39:44;;;;;;;;;0.00;0.00;;;;;36.94;29.38;100757.41;5002406;28;45452;-45
2023/07/29 09:42:16;;;;;;;;;0.75;0.00;;;;;36.80;29.76;100754.94;5002149;28;46798;-48
2023/07/29 09:44:42;;;;;;;;;0.00;0.00;;;;;35.64;30.80;100747.84;5002102;28;45401;-47
2023/07/29 09:47:07;;;;;;;;;0.00;0.00;;;;;34.53;31.39;100757.69;4997542;28;52641;-46
2023/07/29 09:49:36;;;;;;;;;0.00;0.00;;;;;33.46;32.55;100757.22;4996048;28;69565;-48
2023/07/29 09:52:03;;;;;;;;;0.50;0.50;;;;;33.34;33.45;100757.13;5002193;28;46161;-50
2023/07/29 09:54:30;;;;;;;;;0.20;0.00;;;;;32.68;33.76;100758.56;5001877;28;45518;-48
2023/07/29 09:56:56;;;;;;;;;2.00;0.00;;;;;31.63;35.05;100761.50;5002084;28;45371;-47
2023/07/29 09:59:23;;;;;;;;;1.00;0.00;;;;;30.65;36.41;100760.38;5001911;28;45325;-45
2023/07/29 10:01:49;;;;;;;;;0.00;0.00;;;;;31.11;37.32;100755.91;5001873;28;45485;-45
2023/07/29 10:04:14;;;;;;;;;1.50;0.00;;;;;32.80;35.65;100756.78;4999583;28;45390;-45
2023/07/29 10:06:42;;;;;;;;;0.00;0.00;;;;;33.03;34.29;100767.16;4996499;28;69770;-47
2023/07/29 10:09:11;;;;;;;;;0.00;0.00;;;;;32.38;35.44;100756.47;4997036;28;45516;-46
2023/07/29 10:11:37;;;;;;;;;0.00;0.00;;;;;31.70;36.08;100742.22;5001749;28;45535;-46
2023/07/29 10:14:03;;;;;;;;;2.00;2.00;;;;;31.10;36.49;100751.47;5001385;28;45404;-46
2023/07/29 10:16:28;;;;;;;;;2.00;1.25;;;;;30.63;37.72;100756.97;4983836;28;47609;-50
2023/07/29 10:18:54;;;;;;;;;1.00;1.00;;;;;30.15;38.20;100752.44;4999843;28;57707;-48
2023/07/29 10:21:21;;;;;;;;;1.00;1.00;;;;;29.59;39.72;100747.19;5001907;28;45397;-47
2023/07/29 10:23:49;;;;;;;;;0.25;0.25;;;;;29.14;40.28;100748.38;4999657;28;68020;-47
2023/07/29 10:26:16;;;;;;;;;1.25;0.75;;;;;28.76;40.66;100756.09;5000546;28;45238;-46
2023/07/29 10:28:46;;;;;;;;;1.50;0.75;;;;;28.37;41.64;100752.78;4999904;28;45527;-47
2023/07/29 10:31:12;;;;;;;;;0.00;0.00;;;;;27.98;42.23;100759.50;4996872;28;46230;-49
2023/07/29 10:33:38;;;;;;;;;0.80;0.80;;;;;27.64;42.65;100760.94;4999219;28;45439;-46
2023/07/29 10:36:04;;;;;;;;;0.50;0.00;;;;;27.33;43.60;100756.53;4996999;28;45391;-49
2023/07/29 10:38:30;;;;;;;;;0.50;0.50;;;;;27.08;44.53;100762.25;4998187;28;64867;-46
2023/07/29 10:40:57;;;;;;;;;1.25;1.25;;;;;26.83;44.93;100756.19;5000277;28;70723;-46
2023/07/29 10:43:26;;;;;;;;;1.00;1.00;;;;;26.81;45.22;100756.38;5000931;28;45436;-49
2023/07/29 10:45:52;;;;;;;;;0.50;0.50;;;;;26.79;45.83;100760.31;5001333;28;45447;-47
2023/07/29 10:48:33;;;;;;;;;1.25;1.25;;;;;26.69;46.88;100758.66;5001211;28;45571;-45
2023/07/29 10:51:26;;;;;;;;;2.75;1.50;;;;;26.63;47.16;100759.38;5001137;28;45533;-47
2023/07/29 10:53:53;;;;;;;;;1.50;1.50;;;;;26.52;48.04;100757.94;5001151;28;45419;-46
2023/07/29 10:56:36;;;;;;;;;0.00;0.00;;;;;26.44;49.31;100752.56;4999813;28;45769;-48
2023/07/29 10:59:17;;;;;;;;;0.50;0.50;;;;;26.35;49.46;100750.94;5001095;28;45439;-46
2023/07/29 11:01:57;;;;;;;;;1.75;1.75;;;;;26.38;50.12;100753.28;5000904;28;46154;-49
2023/07/29 11:04:30;;;;;;;;;0.00;0.00;;;;;26.45;50.42;100756.97;5000799;28;45460;-45
2023/07/29 11:07:05;;;;;;;;;1.00;1.00;;;;;26.63;50.44;100747.66;5000937;28;45167;-44
2023/07/29 11:09:51;;;;;;;;;1.00;1.00;;;;;26.96;49.71;100741.91;5000948;28;45289;-47
2023/07/29 11:12:42;;;;;;;;;1.50;1.50;;;;;27.33;50.08;100738.25;5000786;28;46226;-45
2023/07/29 11:15:10;;;;;;;;;2.00;2.00;;;;;27.26;49.61;100731.00;5000781;28;45389;-46
2023/07/29 11:17:39;;;;;;;;;1.50;1.50;;;;;27.17;48.79;100736.56;5000889;28;45151;-47
2023/07/29 11:20:05;;;;;;;;;6.50;5.50;;;;;27.14;48.51;100733.34;5000833;28;45421;-50
2023/07/29 11:22:31;;;;;;;;;3.00;3.00;;;;;26.93;49.08;100734.09;5000459;28;45893;-46